createdAt,value
2022-09-29T00:02:02.767Z,6.40
2022-09-29T00:04:33.200Z,6.55
2022-09-29T00:07:03.613Z,6.20
2022-09-29T00:09:34.039Z,6.57
2022-09-29T00:12:04.503Z,6.60
2022-09-29T00:14:34.893Z,6.33
2022-09-29T00:17:05.739Z,6.43
2022-09-29T00:19:36.121Z,6.20
2022-09-29T00:22:06.558Z,6.37
2022-09-29T00:24:37.222Z,6.20
2022-09-29T00:27:07.603Z,6.43
2022-09-29T00:29:37.999Z,6.43
2022-09-29T00:32:08.426Z,6.90
2022-09-29T00:34:39.073Z,6.83
2022-09-29T00:37:09.515Z,6.12
2022-09-29T00:39:40.093Z,6.90
2022-09-29T00:42:13.579Z,6.72
2022-09-29T00:44:59.298Z,6.33
2022-09-29T00:47:32.222Z,6.70
2022-09-29T00:50:20.529Z,6.58
2022-09-29T00:53:01.770Z,6.63
2022-09-29T00:55:39.373Z,6.53
2022-09-29T00:58:16.034Z,6.47
2022-09-29T01:00:46.718Z,6.73
2022-09-29T01:03:20.358Z,7.50
2022-09-29T01:05:56.490Z,6.22
2022-09-29T01:08:42.906Z,5.77
2022-09-29T01:11:13.925Z,6.25
2022-09-29T01:13:45.181Z,6.03
2022-09-29T01:16:15.572Z,6.80
2022-09-29T01:18:47.141Z,5.97
2022-09-29T01:21:32.629Z,6.60
2022-09-29T01:24:27.025Z,6.53
2022-09-29T01:27:09.122Z,6.40
2022-09-29T01:29:48.771Z,6.58
2022-09-29T01:32:37.386Z,7.30
2022-09-29T01:35:19.515Z,7.20
2022-09-29T01:38:09.342Z,6.63
2022-09-29T01:40:49.493Z,6.70
2022-09-29T01:43:23.042Z,7.00
2022-09-29T01:45:56.474Z,6.63
2022-09-29T01:48:30.065Z,7.10
2022-09-29T01:51:03.727Z,6.67
2022-09-29T01:53:39.837Z,6.63
2022-09-29T01:56:14.875Z,6.70
2022-09-29T01:58:56.551Z,6.47
2022-09-29T02:01:30.024Z,7.20
2022-09-29T02:04:21.894Z,7.47
2022-09-29T02:07:07.305Z,7.07
2022-09-29T02:09:43.460Z,7.43
2022-09-29T02:12:17.141Z,7.15
2022-09-29T02:14:49.341Z,7.20
2022-09-29T02:17:25.765Z,7.03
2022-09-29T02:19:56.306Z,7.47
2022-09-29T02:22:26.803Z,7.27
2022-09-29T02:24:59.859Z,7.07
2022-09-29T02:27:30.250Z,6.33
2022-09-29T02:30:01.094Z,7.47
2022-09-29T02:32:34.398Z,6.90
2022-09-29T02:35:07.641Z,6.97
2022-09-29T02:37:56.174Z,7.03
2022-09-29T02:40:51.405Z,6.63
2022-09-29T02:43:43.275Z,6.77
2022-09-29T02:46:31.921Z,7.30
2022-09-29T02:49:11.009Z,6.53
2022-09-29T02:51:50.502Z,7.30
2022-09-29T02:54:25.336Z,7.97
2022-09-29T02:57:17.806Z,7.70
2022-09-29T02:59:57.089Z,7.55
2022-09-29T03:02:28.644Z,7.43
2022-09-29T03:04:59.122Z,7.87
2022-09-29T03:07:29.961Z,8.47
2022-09-29T03:10:00.318Z,8.03
2022-09-29T03:12:30.852Z,8.90
2022-09-29T03:15:01.523Z,8.03
2022-09-29T03:17:31.998Z,7.83
2022-09-29T03:20:02.840Z,8.63
2022-09-29T03:22:33.264Z,8.87
2022-09-29T03:25:06.247Z,8.00
2022-09-29T03:27:38.447Z,8.43
2022-09-29T03:30:10.088Z,8.90
2022-09-29T03:32:40.471Z,9.27
2022-09-29T03:35:11.490Z,8.68
2022-09-29T03:37:41.752Z,8.98
2022-09-29T03:40:12.776Z,8.55
2022-09-29T03:42:43.098Z,9.23
2022-09-29T03:45:13.537Z,9.03
2022-09-29T03:47:43.918Z,9.13
2022-09-29T03:50:14.755Z,9.70
2022-09-29T03:52:45.133Z,9.80
2022-09-29T03:55:15.640Z,9.33
2022-09-29T03:57:47.161Z,9.65
2022-09-29T04:00:17.725Z,9.25
2022-09-29T04:02:48.100Z,9.45
2022-09-29T04:05:18.501Z,9.00
2022-09-29T04:07:49.180Z,9.20
2022-09-29T04:10:19.552Z,8.90
2022-09-29T04:12:50.212Z,9.03
2022-09-29T04:15:20.530Z,8.88
2022-09-29T04:17:50.861Z,8.55
2022-09-29T04:20:21.212Z,8.60
2022-09-29T04:22:51.585Z,9.43
2022-09-29T04:25:21.993Z,8.60
2022-09-29T04:27:52.419Z,9.35
2022-09-29T04:30:22.869Z,9.35
2022-09-29T04:32:53.750Z,10.00
2022-09-29T04:35:24.182Z,8.53
2022-09-29T04:37:58.432Z,9.38
2022-09-29T04:40:28.789Z,10.28
2022-09-29T04:42:59.279Z,10.00
2022-09-29T04:45:30.039Z,9.83
2022-09-29T04:48:00.463Z,9.97
2022-09-29T04:50:31.510Z,12.73
2022-09-29T04:53:01.894Z,11.57
2022-09-29T04:55:32.238Z,10.00
2022-09-29T04:58:02.596Z,10.03
2022-09-29T05:00:33.151Z,10.38
2022-09-29T05:03:03.665Z,10.25
2022-09-29T05:05:34.218Z,10.50
2022-09-29T05:08:07.538Z,15.95
2022-09-29T05:10:38.073Z,12.15
2022-09-29T05:13:08.491Z,10.65
2022-09-29T05:15:40.462Z,10.82
2022-09-29T05:18:10.880Z,10.37
2022-09-29T05:20:50.566Z,10.20
2022-09-29T05:23:13.336Z,10.85
2022-09-29T05:25:44.108Z,10.68
2022-09-29T05:28:15.709Z,10.27
2022-09-29T05:30:46.261Z,11.03
2022-09-29T05:33:16.683Z,10.53
2022-09-29T05:35:47.061Z,18.60
2022-09-29T05:38:17.384Z,11.53
2022-09-29T05:40:47.811Z,10.08
2022-09-29T05:43:18.626Z,11.97
2022-09-29T05:45:49.025Z,11.43
2022-09-29T05:48:19.401Z,11.25
2022-09-29T05:50:50.059Z,11.03
2022-09-29T05:53:20.773Z,9.95
2022-09-29T05:55:51.645Z,11.28
2022-09-29T05:58:22.051Z,12.03
2022-09-29T06:00:52.455Z,10.30
2022-09-29T06:03:22.803Z,13.43
2022-09-29T06:05:53.137Z,10.88
2022-09-29T06:08:23.578Z,9.53
2022-09-29T06:10:53.958Z,10.88
2022-09-29T06:13:24.367Z,10.93
2022-09-29T06:15:54.679Z,10.72
2022-09-29T06:18:25.221Z,11.33
2022-09-29T06:20:57.211Z,11.05
2022-09-29T06:23:27.538Z,10.70
2022-09-29T06:26:02.572Z,11.67
2022-09-29T06:28:33.340Z,11.68
2022-09-29T06:31:06.633Z,10.80
2022-09-29T06:33:37.658Z,10.58
2022-09-29T06:36:32.171Z,10.65
2022-09-29T06:39:02.869Z,10.85
2022-09-29T06:41:34.332Z,10.68
2022-09-29T06:44:04.896Z,11.75
2022-09-29T06:46:38.551Z,10.98
2022-09-29T06:49:08.917Z,11.08
2022-09-29T06:51:45.639Z,10.88
2022-09-29T06:54:13.020Z,10.25
2022-09-29T06:56:43.542Z,11.12
2022-09-29T06:59:14.124Z,12.47
2022-09-29T07:01:45.251Z,11.55
2022-09-29T07:04:15.662Z,11.10
2022-09-29T07:06:46.246Z,10.53
2022-09-29T07:09:17.033Z,10.23
2022-09-29T07:11:50.603Z,10.25
2022-09-29T07:14:23.117Z,10.30
2022-09-29T07:16:53.817Z,10.25
2022-09-29T07:19:24.706Z,11.10
2022-09-29T07:21:55.141Z,10.70
2022-09-29T07:24:26.352Z,9.75
2022-09-29T07:26:56.673Z,10.32
2022-09-29T07:29:27.073Z,10.45
2022-09-29T07:31:57.509Z,10.45
2022-09-29T07:34:27.870Z,10.95
2022-09-29T07:36:58.176Z,10.60
2022-09-29T07:39:28.692Z,11.83
2022-09-29T07:41:59.263Z,11.97
2022-09-29T07:44:31.584Z,10.80
2022-09-29T07:47:01.913Z,11.90
2022-09-29T07:49:32.386Z,11.75
2022-09-29T07:52:02.872Z,11.08
2022-09-29T07:54:33.467Z,11.53
2022-09-29T07:57:03.977Z,10.93
2022-09-29T07:59:34.348Z,11.55
2022-09-29T08:02:04.772Z,12.13
2022-09-29T08:04:35.173Z,11.35
2022-09-29T08:07:05.728Z,11.38
2022-09-29T08:09:40.824Z,11.48
2022-09-29T08:12:08.654Z,11.40
2022-09-29T08:17:19.742Z,12.10
2022-09-29T08:19:50.156Z,12.73
2022-09-29T08:22:20.632Z,11.80
2022-09-29T08:24:51.247Z,11.57
2022-09-29T08:27:21.676Z,11.53
2022-09-29T08:29:52.079Z,11.53
2022-09-29T08:32:22.833Z,12.55
2022-09-29T08:34:53.321Z,12.95
2022-09-29T08:37:23.801Z,11.93
2022-09-29T08:39:54.669Z,12.45
2022-09-29T08:42:51.388Z,12.28
2022-09-29T08:45:27.668Z,11.83
2022-09-29T08:48:12.598Z,12.03
2022-09-29T08:50:45.671Z,11.48
2022-09-29T08:53:27.259Z,11.40
2022-09-29T08:55:56.597Z,11.40
2022-09-29T08:58:27.348Z,11.93
2022-09-29T09:01:12.749Z,12.15
2022-09-29T09:03:50.023Z,11.18
2022-09-29T09:06:39.985Z,11.10
2022-09-29T09:09:45.472Z,12.10
2022-09-29T09:12:36.557Z,12.58
2022-09-29T09:15:34.446Z,10.95
2022-09-29T09:18:18.634Z,11.40
2022-09-29T09:21:10.318Z,11.25
2022-09-29T09:23:49.681Z,12.40
2022-09-29T09:26:22.716Z,11.25
2022-09-29T09:28:56.203Z,11.83
2022-09-29T09:31:30.336Z,12.05
2022-09-29T09:34:06.920Z,11.57
2022-09-29T09:36:43.439Z,11.03
2022-09-29T09:39:19.819Z,11.18
2022-09-29T09:41:53.024Z,11.00
2022-09-29T09:44:37.901Z,10.30
2022-09-29T09:47:27.301Z,11.78
2022-09-29T09:50:19.139Z,10.38
2022-09-29T09:52:55.482Z,9.68
2022-09-29T09:55:27.870Z,9.00
2022-09-29T09:58:04.432Z,9.65
2022-09-29T10:00:37.954Z,8.88
2022-09-29T10:03:10.222Z,8.03
2022-09-29T10:05:42.732Z,9.18
2022-09-29T10:08:34.641Z,7.85
2022-09-29T10:11:17.141Z,7.53
2022-09-29T10:13:49.045Z,7.83
2022-09-29T10:16:23.917Z,8.08
2022-09-29T10:18:54.441Z,7.60
2022-09-29T10:21:31.029Z,6.28
2022-09-29T10:24:01.675Z,6.97
2022-09-29T10:26:47.533Z,7.47
2022-09-29T10:29:35.821Z,7.03
2022-09-29T10:32:09.286Z,6.67
2022-09-29T10:34:42.603Z,6.15
2022-09-29T10:37:40.520Z,6.00
2022-09-29T10:40:14.451Z,6.30
2022-09-29T10:42:48.235Z,6.62
2022-09-29T10:45:27.127Z,5.05
2022-09-29T10:48:08.897Z,4.58
2022-09-29T10:50:54.512Z,5.35
2022-09-29T10:53:39.886Z,5.05
2022-09-29T10:56:24.271Z,5.20
2022-09-29T10:59:01.830Z,5.47
2022-09-29T11:01:31.862Z,5.78
2022-09-29T11:04:05.421Z,5.53
2022-09-29T11:06:41.657Z,8.03
2022-09-29T11:09:18.852Z,5.65
2022-09-29T11:12:00.243Z,5.80
2022-09-29T11:14:29.581Z,5.25
2022-09-29T11:17:02.093Z,5.25
2022-09-29T11:19:33.132Z,4.53
2022-09-29T11:22:23.107Z,5.50
2022-09-29T11:25:05.625Z,5.35
2022-09-29T11:27:41.938Z,5.42
2022-09-29T11:30:24.170Z,5.35
2022-09-29T11:33:08.883Z,4.58
2022-09-29T11:35:57.751Z,5.78
2022-09-29T11:38:31.195Z,4.85
2022-09-29T11:41:15.304Z,4.95
2022-09-29T11:44:06.925Z,4.72
2022-09-29T11:46:55.194Z,4.50
2022-09-29T11:49:51.207Z,4.55
2022-09-29T11:52:28.211Z,5.50
2022-09-29T11:55:19.783Z,4.37
2022-09-29T11:57:56.022Z,5.72
2022-09-29T12:00:52.028Z,4.90
2022-09-29T12:03:31.479Z,5.35
2022-09-29T12:06:38.399Z,4.47
2022-09-29T12:09:27.845Z,4.95
2022-09-29T12:12:28.303Z,28.83
2022-09-29T12:15:14.736Z,6.00
2022-09-29T12:17:48.508Z,4.45
2022-09-29T12:20:37.118Z,4.17
2022-09-29T12:23:10.693Z,3.72
2022-09-29T12:25:44.162Z,3.50
2022-09-29T12:28:17.659Z,3.02
2022-09-29T12:30:57.292Z,2.90
2022-09-29T12:33:39.473Z,2.80
2022-09-29T12:36:42.999Z,2.98
2022-09-29T12:39:28.317Z,3.10
2022-09-29T12:42:04.462Z,5.00
2022-09-29T12:44:40.905Z,3.37
2022-09-29T12:47:17.541Z,2.83
2022-09-29T12:50:22.923Z,3.52
2022-09-29T12:53:19.049Z,2.90
2022-09-29T12:55:52.516Z,3.87
2022-09-29T12:58:28.808Z,3.98
2022-09-29T13:01:02.391Z,3.95
2022-09-29T13:03:41.931Z,3.27
2022-09-29T13:06:34.832Z,3.87
2022-09-29T13:09:20.059Z,2.60
2022-09-29T13:11:59.170Z,4.40
2022-09-29T13:14:41.906Z,4.50
2022-09-29T13:17:31.683Z,3.60
2022-09-29T13:20:17.330Z,4.35
2022-09-29T13:22:50.696Z,3.30
2022-09-29T13:25:35.658Z,3.87
2022-09-29T13:28:09.089Z,3.70
2022-09-29T13:30:40.182Z,8.28
2022-09-29T13:33:13.754Z,5.20
2022-09-29T13:35:47.543Z,4.42
2022-09-29T13:38:24.072Z,3.70
2022-09-29T13:41:20.053Z,3.85
2022-09-29T13:43:56.537Z,3.70
2022-09-29T13:46:36.249Z,3.60
2022-09-29T13:49:15.138Z,3.60
2022-09-29T13:51:50.480Z,4.58
2022-09-29T13:54:39.970Z,9.88
2022-09-29T13:57:16.205Z,7.70
2022-09-29T14:00:00.448Z,5.62
2022-09-29T14:02:45.745Z,3.62
2022-09-29T14:05:28.355Z,3.45
2022-09-29T14:08:04.156Z,3.65
2022-09-29T14:10:46.308Z,3.60
2022-09-29T14:13:51.819Z,3.30
2022-09-29T14:16:47.211Z,3.55
2022-09-29T14:19:34.175Z,3.17
2022-09-29T14:22:07.409Z,3.05
2022-09-29T14:24:41.018Z,3.22
2022-09-29T14:27:17.486Z,3.10
2022-09-29T14:29:52.583Z,3.42
2022-09-29T14:32:29.049Z,3.00
2022-09-29T14:34:58.202Z,9.93
2022-09-29T14:37:28.883Z,3.52
2022-09-29T14:40:18.607Z,8.05
2022-09-29T14:42:49.148Z,3.35
2022-09-29T14:45:38.615Z,2.77
2022-09-29T14:48:41.951Z,2.40
2022-09-29T14:51:36.115Z,2.50
2022-09-29T14:54:12.071Z,2.55
2022-09-29T14:56:48.396Z,2.90
2022-09-29T14:59:27.622Z,3.80
2022-09-29T15:02:18.053Z,6.75
2022-09-29T15:04:49.889Z,2.65
2022-09-29T15:07:23.645Z,2.75
2022-09-29T15:09:59.775Z,2.50
2022-09-29T15:12:35.386Z,2.30
2022-09-29T15:15:07.233Z,2.70
2022-09-29T15:17:52.617Z,3.02
2022-09-29T15:20:45.819Z,2.35
2022-09-29T15:23:34.220Z,3.17
2022-09-29T15:26:04.952Z,2.65
2022-09-29T15:28:38.385Z,3.00
2022-09-29T15:31:14.664Z,3.12
2022-09-29T15:33:46.629Z,3.17
2022-09-29T15:36:25.589Z,7.50
2022-09-29T15:38:59.044Z,2.70
2022-09-29T15:41:33.183Z,2.42
2022-09-29T15:44:07.119Z,3.25
2022-09-29T15:46:43.379Z,2.42
2022-09-29T15:49:20.052Z,2.50
2022-09-29T15:52:02.723Z,2.50
2022-09-29T15:57:26.678Z,2.70
2022-09-29T15:59:57.352Z,2.27
2022-09-29T16:02:30.951Z,2.33
2022-09-29T16:05:07.974Z,4.15
2022-09-29T16:07:41.672Z,2.92
2022-09-29T16:10:20.601Z,2.77
2022-09-29T16:13:04.144Z,3.20
2022-09-29T16:15:37.545Z,3.00
2022-09-29T16:18:11.319Z,3.90
2022-09-29T16:20:44.129Z,2.65
2022-09-29T16:23:23.744Z,3.00
2022-09-29T16:26:13.649Z,3.00
2022-09-29T16:29:14.263Z,2.80
2022-09-29T16:31:46.656Z,2.92
2022-09-29T16:34:29.319Z,2.90
2022-09-29T16:37:02.766Z,3.00
2022-09-29T16:39:41.741Z,2.85
2022-09-29T16:42:26.943Z,3.22
2022-09-29T16:44:59.071Z,3.02
2022-09-29T16:47:32.374Z,4.22
2022-09-29T16:50:05.882Z,3.98
2022-09-29T16:52:45.597Z,3.42
2022-09-29T16:55:28.169Z,3.15
2022-09-29T16:58:04.845Z,3.95
2022-09-29T17:00:36.537Z,4.17
2022-09-29T17:03:07.023Z,3.90
2022-09-29T17:05:42.174Z,3.40
2022-09-29T17:08:18.467Z,4.00
2022-09-29T17:10:52.395Z,4.00
2022-09-29T17:13:23.835Z,3.90
2022-09-29T17:15:54.509Z,3.60
2022-09-29T17:18:26.569Z,3.37
2022-09-29T17:20:56.975Z,3.67
2022-09-29T17:23:27.379Z,3.70
2022-09-29T17:25:59.547Z,4.05
2022-09-29T17:28:34.432Z,4.78
2022-09-29T17:31:03.911Z,4.00
2022-09-29T17:33:34.633Z,4.70
2022-09-29T17:36:05.130Z,3.55
2022-09-29T17:38:36.742Z,4.70
2022-09-29T17:41:09.756Z,4.70
2022-09-29T17:43:41.726Z,5.95
2022-09-29T17:46:13.147Z,4.62
2022-09-29T17:48:43.898Z,4.55
2022-09-29T17:51:17.658Z,4.50
2022-09-29T17:53:47.973Z,4.87
2022-09-29T17:56:26.730Z,4.60
2022-09-29T17:58:57.557Z,5.00
2022-09-29T18:01:28.223Z,5.08
2022-09-29T18:03:58.728Z,9.70
2022-09-29T18:06:29.310Z,6.87
2022-09-29T18:08:59.866Z,8.37
2022-09-29T18:11:30.289Z,7.15
2022-09-29T18:14:00.980Z,6.25
2022-09-29T18:16:31.410Z,6.95
2022-09-29T18:19:01.771Z,7.58
2022-09-29T18:21:33.627Z,7.33
2022-09-29T18:24:03.879Z,7.47
2022-09-29T18:26:34.375Z,7.20
2022-09-29T18:29:20.442Z,7.42
2022-09-29T18:31:51.622Z,7.55
2022-09-29T18:34:23.209Z,7.78
2022-09-29T18:36:53.884Z,7.42
2022-09-29T18:39:24.339Z,7.47
2022-09-29T18:41:54.734Z,8.18
2022-09-29T18:44:27.625Z,7.87
2022-09-29T18:46:58.111Z,7.60
2022-09-29T18:49:28.539Z,8.10
2022-09-29T18:51:59.594Z,8.30
2022-09-29T18:54:29.961Z,8.10
2022-09-29T18:57:01.330Z,8.25
2022-09-29T18:59:33.455Z,8.65
2022-09-29T19:02:03.953Z,8.30
2022-09-29T19:04:37.380Z,7.35
2022-09-29T19:07:09.310Z,8.30
2022-09-29T19:09:39.895Z,8.00
2022-09-29T19:12:11.114Z,8.08
2022-09-29T19:14:42.477Z,8.45
2022-09-29T19:17:13.080Z,7.87
2022-09-29T19:19:44.259Z,7.90
2022-09-29T19:22:14.732Z,7.90
2022-09-29T19:24:45.775Z,8.80
2022-09-29T19:27:16.433Z,8.55
2022-09-29T19:29:46.923Z,7.90
2022-09-29T19:32:17.276Z,7.65
2022-09-29T19:34:47.730Z,8.00
2022-09-29T19:37:21.209Z,8.30
2022-09-29T19:39:52.326Z,8.28
2022-09-29T19:42:23.012Z,8.13
2022-09-29T19:44:53.724Z,8.30
2022-09-29T19:47:24.407Z,8.13
2022-09-29T19:49:56.432Z,8.18
2022-09-29T19:52:27.233Z,7.70
2022-09-29T19:54:57.534Z,7.47
2022-09-29T19:57:28.243Z,8.05
2022-09-29T19:59:58.793Z,7.83
2022-09-29T20:02:29.300Z,7.67
2022-09-29T20:05:01.745Z,9.90
2022-09-29T20:07:32.037Z,8.28
2022-09-29T20:10:02.605Z,8.60
2022-09-29T20:12:33.077Z,8.40
2022-09-29T20:15:04.661Z,7.77
2022-09-29T20:17:35.854Z,8.63
2022-09-29T20:20:09.386Z,8.23
2022-09-29T20:22:40.349Z,7.80
2022-09-29T20:25:12.601Z,7.60
2022-09-29T20:27:43.031Z,8.30
2022-09-29T20:30:13.696Z,8.35
2022-09-29T20:32:44.020Z,8.55
2022-09-29T20:35:14.420Z,8.23
2022-09-29T20:37:44.818Z,8.83
2022-09-29T20:40:15.169Z,8.20
2022-09-29T20:42:47.244Z,8.68
2022-09-29T20:45:17.945Z,7.87
2022-09-29T20:47:48.341Z,8.35
2022-09-29T20:50:18.655Z,8.58
2022-09-29T20:52:49.303Z,9.85
2022-09-29T20:55:19.651Z,9.25
2022-09-29T20:57:54.733Z,8.90
2022-09-29T21:00:28.444Z,8.93
2022-09-29T21:02:58.942Z,8.93
2022-09-29T21:05:29.381Z,9.15
2022-09-29T21:08:00.592Z,8.75
2022-09-29T21:10:30.887Z,9.27
2022-09-29T21:13:02.994Z,8.48
2022-09-29T21:15:35.227Z,9.30
2022-09-29T21:18:06.198Z,9.28
2022-09-29T21:20:36.877Z,9.08
2022-09-29T21:23:07.283Z,9.13
2022-09-29T21:25:37.641Z,8.88
2022-09-29T21:28:09.198Z,8.93
2022-09-29T21:30:39.415Z,8.20
2022-09-29T21:33:10.794Z,8.75
2022-09-29T21:35:41.091Z,8.70
2022-09-29T21:38:11.486Z,9.17
2022-09-29T21:40:42.011Z,9.00
2022-09-29T21:43:12.343Z,8.55
2022-09-29T21:45:42.729Z,8.90
2022-09-29T21:48:13.128Z,9.08
2022-09-29T21:50:43.521Z,8.93
2022-09-29T21:53:14.070Z,8.88
2022-09-29T21:55:44.458Z,8.68
2022-09-29T21:58:14.833Z,8.55
2022-09-29T22:00:45.259Z,8.40
2022-09-29T22:03:15.754Z,8.50
2022-09-29T22:05:46.209Z,8.85
2022-09-29T22:08:17.369Z,8.78
2022-09-29T22:10:50.083Z,9.40
2022-09-29T22:13:22.742Z,8.90
2022-09-29T22:16:05.217Z,8.80
2022-09-29T22:18:41.522Z,8.60
2022-09-29T22:21:11.240Z,8.70
2022-09-29T22:23:41.624Z,8.75
2022-09-29T22:26:14.822Z,8.95
2022-09-29T22:28:46.412Z,8.85
2022-09-29T22:31:16.875Z,8.83
2022-09-29T22:33:47.388Z,8.70
2022-09-29T22:36:17.794Z,10.60
2022-09-29T22:38:48.903Z,9.80
2022-09-29T22:41:24.068Z,9.53
2022-09-29T22:43:56.660Z,9.55
2022-09-29T22:46:29.272Z,8.85
2022-09-29T22:49:00.112Z,9.20
2022-09-29T22:51:30.501Z,9.23
2022-09-29T22:54:01.142Z,9.07
2022-09-29T22:56:31.484Z,8.58
2022-09-29T22:59:04.566Z,8.75
2022-09-29T23:01:35.291Z,8.90
2022-09-29T23:04:05.764Z,8.75
2022-09-29T23:06:36.221Z,8.90
2022-09-29T23:09:07.072Z,8.50
2022-09-29T23:11:37.457Z,9.20
2022-09-29T23:14:07.922Z,8.45
2022-09-29T23:16:38.953Z,9.20
2022-09-29T23:19:11.734Z,9.28
2022-09-29T23:21:42.099Z,7.90
2022-09-29T23:24:12.881Z,8.67
2022-09-29T23:26:45.111Z,7.60
2022-09-29T23:29:16.150Z,8.33
2022-09-29T23:31:49.532Z,7.65
2022-09-29T23:34:20.274Z,8.43
2022-09-29T23:36:51.686Z,7.95
2022-09-29T23:39:22.334Z,7.45
2022-09-29T23:41:54.344Z,7.30
2022-09-29T23:44:27.588Z,8.33
2022-09-29T23:46:58.952Z,8.13
2022-09-29T23:49:29.741Z,7.50
2022-09-29T23:52:04.453Z,8.10
2022-09-29T23:54:34.845Z,9.40
2022-09-29T23:57:05.402Z,8.33
2022-09-29T23:59:35.773Z,8.13
